createdAt,value
2023-01-15T00:01:49.810Z,24.33
2023-01-15T00:04:18.615Z,24.40
2023-01-15T00:06:46.537Z,20.75
2023-01-15T00:09:16.085Z,23.88
2023-01-15T00:11:44.195Z,21.30
2023-01-15T00:14:12.937Z,24.15
2023-01-15T00:16:40.979Z,23.00
2023-01-15T00:19:12.358Z,21.02
2023-01-15T00:21:40.199Z,22.90
2023-01-15T00:24:28.412Z,19.48
2023-01-15T00:27:15.029Z,26.98
2023-01-15T00:29:43.374Z,23.02
2023-01-15T00:32:12.646Z,20.70
2023-01-15T00:34:41.181Z,21.38
2023-01-15T00:37:09.014Z,23.15
2023-01-15T00:39:37.427Z,22.02
2023-01-15T00:42:05.319Z,23.35
2023-01-15T00:44:34.486Z,22.23
2023-01-15T00:47:02.611Z,23.50
2023-01-15T00:49:31.140Z,22.48
2023-01-15T00:51:59.143Z,23.05
2023-01-15T00:54:27.364Z,19.02
2023-01-15T00:56:55.213Z,21.77
2023-01-15T00:59:23.623Z,22.48
2023-01-15T01:01:53.129Z,21.85
2023-01-15T01:04:21.220Z,15.52
2023-01-15T01:06:49.065Z,22.55
2023-01-15T01:09:17.750Z,19.95
2023-01-15T01:11:45.756Z,19.42
2023-01-15T01:14:13.841Z,23.48
2023-01-15T01:16:42.633Z,17.65
2023-01-15T01:19:22.234Z,22.48
2023-01-15T01:21:51.599Z,18.17
2023-01-15T01:24:21.981Z,19.85
2023-01-15T01:26:52.793Z,18.20
2023-01-15T01:31:51.568Z,23.10
2023-01-15T01:34:20.026Z,24.13
2023-01-15T01:36:47.864Z,21.52
2023-01-15T01:39:18.526Z,18.95
2023-01-15T01:41:47.193Z,17.25
2023-01-15T01:44:35.323Z,20.20
2023-01-15T01:47:11.873Z,20.02
2023-01-15T01:49:41.133Z,16.48
2023-01-15T01:52:13.983Z,20.67
2023-01-15T01:54:44.737Z,11.73
2023-01-15T01:57:13.350Z,19.65
2023-01-15T01:59:41.967Z,16.65
2023-01-15T02:02:09.878Z,17.30
2023-01-15T02:04:38.232Z,18.13
2023-01-15T02:07:06.340Z,14.10
2023-01-15T02:09:34.685Z,25.40
2023-01-15T02:12:09.945Z,17.08
2023-01-15T02:15:04.244Z,10.85
2023-01-15T02:18:10.298Z,13.77
2023-01-15T02:20:59.476Z,16.00
2023-01-15T02:23:45.860Z,17.38
2023-01-15T02:26:52.195Z,12.75
2023-01-15T02:29:26.842Z,13.15
2023-01-15T02:31:56.504Z,14.20
2023-01-15T02:34:28.152Z,16.60
2023-01-15T02:39:32.034Z,19.20
2023-01-15T02:42:03.624Z,16.98
2023-01-15T02:44:40.835Z,11.80
2023-01-15T02:47:12.970Z,14.15
2023-01-15T02:49:42.311Z,14.15
2023-01-15T02:52:41.914Z,15.38
2023-01-15T02:55:16.802Z,18.08
2023-01-15T02:57:47.999Z,11.75
2023-01-15T03:00:20.062Z,14.20
2023-01-15T03:02:55.959Z,10.90
2023-01-15T03:05:34.556Z,14.20
2023-01-15T03:08:05.544Z,12.27
2023-01-15T03:11:11.161Z,14.50
2023-01-15T03:14:01.941Z,13.20
2023-01-15T03:16:53.759Z,17.25
2023-01-15T03:19:22.321Z,12.18
2023-01-15T03:22:16.779Z,15.45
2023-01-15T03:25:13.784Z,14.15
2023-01-15T03:27:47.396Z,13.07
2023-01-15T03:30:21.359Z,15.30
2023-01-15T03:32:51.259Z,13.00
2023-01-15T03:35:59.351Z,14.35
2023-01-15T03:38:51.151Z,15.57
2023-01-15T03:41:59.702Z,12.23
2023-01-15T03:44:54.869Z,14.10
2023-01-15T03:47:29.902Z,16.38
2023-01-15T03:50:05.973Z,14.73
2023-01-15T03:52:59.572Z,14.52
2023-01-15T03:55:36.413Z,15.65
2023-01-15T03:58:14.177Z,14.98
2023-01-15T04:00:52.428Z,16.13
2023-01-15T04:03:24.252Z,15.93
2023-01-15T04:05:53.458Z,17.17
2023-01-15T04:08:23.415Z,14.32
2023-01-15T04:10:59.437Z,12.82
2023-01-15T04:13:31.695Z,12.00
2023-01-15T04:16:00.571Z,12.25
2023-01-15T04:18:29.190Z,14.98
2023-01-15T04:20:58.242Z,16.35
2023-01-15T04:23:26.433Z,13.20
2023-01-15T04:25:54.552Z,10.50
2023-01-15T04:28:22.527Z,13.32
2023-01-15T04:30:50.512Z,14.23
2023-01-15T04:33:18.683Z,13.82
2023-01-15T04:35:47.549Z,13.68
2023-01-15T04:38:15.818Z,15.15
2023-01-15T04:41:01.743Z,12.13
2023-01-15T04:43:48.027Z,20.98
2023-01-15T04:46:16.331Z,15.27
2023-01-15T04:48:44.432Z,14.75
2023-01-15T04:51:12.765Z,14.55
2023-01-15T04:53:40.725Z,8.57
2023-01-15T04:56:08.566Z,11.30
2023-01-15T04:58:36.739Z,13.02
2023-01-15T05:01:09.477Z,11.73
2023-01-15T05:03:37.754Z,11.30
2023-01-15T05:06:05.989Z,12.25
2023-01-15T05:08:34.386Z,13.88
2023-01-15T05:11:06.976Z,9.98
2023-01-15T05:16:25.906Z,9.05
2023-01-15T05:18:55.494Z,9.70
2023-01-15T05:21:25.551Z,12.05
2023-01-15T05:23:56.043Z,11.05
2023-01-15T05:26:24.483Z,11.23
2023-01-15T05:28:57.219Z,14.75
2023-01-15T05:31:25.961Z,11.17
2023-01-15T05:33:55.892Z,9.20
2023-01-15T05:36:25.737Z,8.98
2023-01-15T05:38:55.107Z,9.65
2023-01-15T05:41:41.580Z,9.00
2023-01-15T05:44:11.655Z,13.07
2023-01-15T05:46:40.971Z,10.18
2023-01-15T05:49:11.734Z,9.48
2023-01-15T05:51:40.155Z,5.32
2023-01-15T05:54:11.966Z,10.52
2023-01-15T05:56:40.193Z,12.02
2023-01-15T05:59:09.168Z,8.20
2023-01-15T06:01:37.013Z,6.32
2023-01-15T06:04:06.565Z,6.38
2023-01-15T06:06:36.052Z,7.68
2023-01-15T06:09:05.002Z,7.85
2023-01-15T06:11:33.436Z,8.20
2023-01-15T06:14:01.714Z,6.95
2023-01-15T06:16:29.693Z,7.30
2023-01-15T06:19:02.456Z,8.98
2023-01-15T06:21:31.253Z,5.20
2023-01-15T06:23:59.559Z,7.10
2023-01-15T06:26:27.410Z,8.20
2023-01-15T06:28:55.800Z,6.72
2023-01-15T06:31:26.970Z,7.45
2023-01-15T06:33:55.444Z,8.00
2023-01-15T06:36:25.218Z,7.35
2023-01-15T06:38:53.618Z,10.57
2023-01-15T06:41:43.813Z,7.10
2023-01-15T06:44:33.448Z,7.32
2023-01-15T06:47:22.103Z,7.28
2023-01-15T06:49:56.147Z,6.45
2023-01-15T06:52:28.019Z,5.07
2023-01-15T06:54:56.463Z,6.93
2023-01-15T06:57:24.312Z,9.13
2023-01-15T06:59:52.739Z,8.40
2023-01-15T07:02:21.958Z,6.30
2023-01-15T07:04:52.268Z,7.25
2023-01-15T07:07:20.995Z,6.50
2023-01-15T07:09:50.444Z,6.47
2023-01-15T07:12:18.751Z,5.57
2023-01-15T07:14:46.732Z,5.65
2023-01-15T07:17:15.470Z,6.97
2023-01-15T07:19:43.439Z,5.80
2023-01-15T07:22:11.420Z,7.63
2023-01-15T07:24:39.671Z,7.30
2023-01-15T07:27:07.966Z,6.80
2023-01-15T07:29:35.924Z,6.57
2023-01-15T07:32:03.655Z,6.88
2023-01-15T07:34:31.792Z,6.15
2023-01-15T07:36:59.424Z,6.15
2023-01-15T07:39:28.866Z,8.05
2023-01-15T07:42:15.795Z,6.13
2023-01-15T07:45:05.280Z,9.10
2023-01-15T07:47:52.178Z,6.40
2023-01-15T07:50:23.450Z,8.13
2023-01-15T07:52:53.450Z,11.30
2023-01-15T07:55:22.568Z,12.93
2023-01-15T07:57:50.538Z,8.52
2023-01-15T08:00:24.081Z,15.77
2023-01-15T08:02:52.495Z,6.68
2023-01-15T08:05:21.047Z,7.15
2023-01-15T08:07:49.300Z,7.82
2023-01-15T08:10:17.553Z,6.72
2023-01-15T08:13:03.927Z,6.32
2023-01-15T08:15:34.774Z,9.50
2023-01-15T08:18:02.566Z,11.80
2023-01-15T08:20:30.990Z,6.13
2023-01-15T08:23:01.497Z,6.20
2023-01-15T08:25:29.692Z,8.77
2023-01-15T08:28:02.796Z,10.18
2023-01-15T08:30:31.141Z,6.60
2023-01-15T08:33:03.473Z,9.98
2023-01-15T08:37:59.954Z,11.68
2023-01-15T08:40:28.334Z,5.82
2023-01-15T08:42:56.705Z,5.80
2023-01-15T08:45:24.741Z,5.70
2023-01-15T08:47:57.208Z,4.82
2023-01-15T08:50:25.580Z,5.13
2023-01-15T08:52:53.681Z,5.28
2023-01-15T08:55:21.957Z,7.10
2023-01-15T08:57:49.976Z,6.40
2023-01-15T09:00:18.603Z,10.80
2023-01-15T09:02:49.223Z,7.32
2023-01-15T09:05:19.141Z,6.05
2023-01-15T09:07:47.267Z,5.25
2023-01-15T09:10:15.976Z,5.93
2023-01-15T09:12:43.810Z,7.05
2023-01-15T09:15:12.245Z,6.75
2023-01-15T09:17:41.091Z,4.68
2023-01-15T09:20:12.489Z,6.90
2023-01-15T09:22:40.530Z,6.78
2023-01-15T09:25:09.096Z,7.35
2023-01-15T09:27:38.357Z,7.65
2023-01-15T09:30:07.367Z,4.50
2023-01-15T09:32:35.138Z,8.00
2023-01-15T09:35:04.126Z,8.35
2023-01-15T09:37:31.842Z,6.97
2023-01-15T09:40:02.731Z,9.55
2023-01-15T09:42:44.350Z,7.60
2023-01-15T09:45:19.208Z,8.55
2023-01-15T09:48:18.162Z,10.55
2023-01-15T09:51:05.445Z,12.07
2023-01-15T09:53:57.815Z,8.40
2023-01-15T09:56:29.428Z,9.53
2023-01-15T09:58:59.000Z,9.00
2023-01-15T10:01:30.778Z,10.98
2023-01-15T10:04:30.370Z,14.27
2023-01-15T10:07:12.769Z,8.80
2023-01-15T10:09:41.811Z,8.52
2023-01-15T10:12:43.736Z,6.15
2023-01-15T10:15:20.046Z,12.32
2023-01-15T10:17:53.280Z,9.38
2023-01-15T10:20:39.770Z,13.27
2023-01-15T10:23:26.211Z,14.30
2023-01-15T10:26:04.474Z,11.05
2023-01-15T10:28:41.607Z,10.05
2023-01-15T10:31:25.082Z,13.68
2023-01-15T10:34:01.271Z,11.55
2023-01-15T10:36:39.085Z,10.23
2023-01-15T10:39:21.349Z,15.00
2023-01-15T10:42:21.536Z,10.38
2023-01-15T10:44:53.397Z,8.23
2023-01-15T10:47:29.792Z,12.85
2023-01-15T10:50:00.495Z,13.00
2023-01-15T10:52:33.994Z,10.43
2023-01-15T10:55:09.691Z,10.75
2023-01-15T10:58:10.222Z,11.70
2023-01-15T11:00:39.779Z,10.68
2023-01-15T11:03:18.580Z,9.32
2023-01-15T11:05:47.167Z,10.30
2023-01-15T11:11:47.909Z,8.85
2023-01-15T11:14:34.177Z,9.98
2023-01-15T11:17:08.682Z,9.88
2023-01-15T11:19:42.153Z,6.68
2023-01-15T11:22:16.766Z,7.78
2023-01-15T11:24:54.363Z,8.13
2023-01-15T11:27:29.158Z,7.88
2023-01-15T11:29:59.207Z,9.57
2023-01-15T11:32:34.913Z,7.18
2023-01-15T11:35:17.825Z,8.65
2023-01-15T11:37:46.201Z,7.88
2023-01-15T11:40:24.048Z,11.35
2023-01-15T11:43:11.240Z,7.20
2023-01-15T11:46:11.571Z,9.63
2023-01-15T11:49:05.704Z,11.13
2023-01-15T11:51:42.830Z,8.45
2023-01-15T11:54:13.879Z,7.95
2023-01-15T11:56:46.170Z,7.45
2023-01-15T11:59:17.800Z,5.72
2023-01-15T12:02:00.222Z,8.68
2023-01-15T12:04:57.134Z,7.63
2023-01-15T12:07:26.844Z,8.07
2023-01-15T12:10:16.084Z,9.35
2023-01-15T12:13:19.215Z,10.23
2023-01-15T12:15:57.747Z,7.57
2023-01-15T12:19:04.050Z,7.88
2023-01-15T12:22:11.220Z,10.27
2023-01-15T12:25:16.116Z,9.15
2023-01-15T12:28:17.388Z,9.07
2023-01-15T12:30:55.100Z,10.05
2023-01-15T12:33:44.071Z,9.35
2023-01-15T12:36:36.487Z,7.43
2023-01-15T12:39:13.103Z,9.65
2023-01-15T12:42:01.226Z,7.40
2023-01-15T12:45:04.959Z,8.43
2023-01-15T12:47:52.906Z,8.80
2023-01-15T12:50:46.966Z,7.18
2023-01-15T12:56:20.575Z,7.90
2023-01-15T12:58:48.368Z,10.20
2023-01-15T13:01:19.218Z,7.30
2023-01-15T13:04:19.150Z,7.35
2023-01-15T13:06:51.516Z,6.53
2023-01-15T13:09:35.192Z,7.13
2023-01-15T13:12:03.712Z,10.15
2023-01-15T13:14:31.501Z,9.95
2023-01-15T13:17:06.824Z,7.88
2023-01-15T13:19:46.494Z,9.25
2023-01-15T13:22:22.201Z,10.52
2023-01-15T13:25:08.516Z,7.65
2023-01-15T13:27:55.529Z,8.73
2023-01-15T13:31:08.701Z,7.50
2023-01-15T13:33:39.405Z,6.88
2023-01-15T13:36:14.056Z,8.13
2023-01-15T13:38:48.366Z,8.70
2023-01-15T13:41:50.404Z,8.57
2023-01-15T13:44:24.749Z,6.90
2023-01-15T13:47:03.674Z,8.70
2023-01-15T13:49:55.745Z,9.73
2023-01-15T13:52:28.518Z,8.60
2023-01-15T13:55:00.953Z,12.10
2023-01-15T13:57:37.292Z,10.75
2023-01-15T14:00:28.139Z,10.32
2023-01-15T14:02:58.562Z,11.90
2023-01-15T14:05:27.136Z,8.05
2023-01-15T14:07:55.748Z,12.00
2023-01-15T14:10:42.197Z,8.10
2023-01-15T14:13:22.981Z,8.85
2023-01-15T14:16:28.779Z,9.95
2023-01-15T14:19:14.658Z,9.73
2023-01-15T14:21:51.930Z,9.80
2023-01-15T14:24:57.805Z,13.63
2023-01-15T14:27:29.217Z,8.05
2023-01-15T14:30:32.484Z,9.95
2023-01-15T14:33:12.357Z,11.95
2023-01-15T14:35:45.621Z,9.70
2023-01-15T14:38:17.628Z,11.07
2023-01-15T14:40:59.893Z,8.38
2023-01-15T14:43:34.067Z,8.00
2023-01-15T14:46:22.498Z,8.55
2023-01-15T14:48:50.751Z,7.68
2023-01-15T14:51:25.969Z,7.63
2023-01-15T14:54:05.151Z,8.75
2023-01-15T14:56:38.512Z,9.55
2023-01-15T14:59:28.171Z,10.30
2023-01-15T15:02:00.561Z,9.40
2023-01-15T15:04:31.924Z,21.13
2023-01-15T15:07:11.533Z,23.42
2023-01-15T15:09:43.656Z,12.00
2023-01-15T15:12:49.767Z,13.25
2023-01-15T15:15:22.003Z,8.95
2023-01-15T15:18:03.729Z,12.25
2023-01-15T15:20:55.475Z,10.25
2023-01-15T15:23:41.786Z,10.93
2023-01-15T15:26:29.963Z,15.77
2023-01-15T15:29:13.309Z,15.90
2023-01-15T15:31:45.798Z,18.38
2023-01-15T15:34:32.492Z,14.20
2023-01-15T15:37:03.724Z,9.82
2023-01-15T15:39:53.328Z,11.70
2023-01-15T15:42:53.409Z,12.48
2023-01-15T15:45:42.084Z,12.05
2023-01-15T15:48:36.971Z,11.55
2023-01-15T15:51:05.758Z,9.43
2023-01-15T15:53:34.109Z,14.25
2023-01-15T15:56:02.108Z,13.40
2023-01-15T15:58:35.908Z,22.48
2023-01-15T16:01:04.284Z,19.95
2023-01-15T16:03:33.612Z,13.85
2023-01-15T16:06:02.674Z,19.83
2023-01-15T16:08:33.429Z,22.60
2023-01-15T16:11:10.728Z,13.00
2023-01-15T16:13:42.346Z,13.32
2023-01-15T16:16:11.012Z,11.80
2023-01-15T16:18:44.472Z,15.07
2023-01-15T16:21:18.874Z,16.08
2023-01-15T16:23:57.594Z,12.00
2023-01-15T16:26:49.954Z,12.68
2023-01-15T16:29:24.060Z,13.85
2023-01-15T16:31:52.750Z,14.93
2023-01-15T16:34:34.277Z,10.13
2023-01-15T16:37:02.737Z,21.05
2023-01-15T16:39:31.600Z,14.07
2023-01-15T16:42:02.392Z,12.98
2023-01-15T16:44:44.509Z,14.65
2023-01-15T16:47:27.182Z,17.77
2023-01-15T16:50:24.353Z,16.15
2023-01-15T16:52:54.261Z,12.32
2023-01-15T16:55:34.715Z,14.07
2023-01-15T16:58:20.238Z,14.25
2023-01-15T17:00:53.824Z,13.15
2023-01-15T17:03:23.854Z,16.33
2023-01-15T17:05:57.661Z,15.77
2023-01-15T17:08:35.424Z,13.75
2023-01-15T17:11:05.114Z,18.85
2023-01-15T17:13:38.940Z,20.30
2023-01-15T17:16:23.158Z,18.50
2023-01-15T17:18:51.964Z,19.00
2023-01-15T17:21:27.592Z,17.63
2023-01-15T17:23:56.346Z,20.15
2023-01-15T17:26:25.986Z,18.63
2023-01-15T17:28:54.492Z,18.77
2023-01-15T17:31:26.140Z,20.48
2023-01-15T17:33:54.707Z,20.23
2023-01-15T17:36:24.040Z,22.38
2023-01-15T17:38:52.328Z,22.77
2023-01-15T17:41:23.868Z,23.27
2023-01-15T17:43:56.372Z,24.00
2023-01-15T17:46:28.589Z,18.75
2023-01-15T17:51:36.465Z,23.77
2023-01-15T17:54:11.860Z,21.60
2023-01-15T17:57:04.631Z,18.60
2023-01-15T17:59:54.338Z,19.67
2023-01-15T18:03:00.156Z,21.45
2023-01-15T18:05:39.012Z,19.95
2023-01-15T18:08:13.170Z,20.70
2023-01-15T18:10:41.495Z,21.55
2023-01-15T18:13:09.988Z,24.95
2023-01-15T18:15:38.763Z,27.38
2023-01-15T18:18:06.932Z,25.30
2023-01-15T18:20:35.940Z,22.15
2023-01-15T18:23:04.736Z,22.77
2023-01-15T18:25:35.369Z,25.15
2023-01-15T18:28:03.522Z,24.42
2023-01-15T18:30:32.838Z,24.10
2023-01-15T18:33:02.697Z,27.05
2023-01-15T18:35:31.878Z,23.70
2023-01-15T18:37:59.755Z,29.27
2023-01-15T18:40:30.696Z,21.65
2023-01-15T18:43:17.792Z,22.13
2023-01-15T18:46:08.220Z,21.10
2023-01-15T18:48:36.830Z,17.38
2023-01-15T18:51:09.633Z,21.73
2023-01-15T18:53:38.106Z,17.73
2023-01-15T18:56:07.359Z,16.40
2023-01-15T18:58:35.525Z,17.13
2023-01-15T19:01:08.156Z,12.32
2023-01-15T19:03:36.053Z,11.75
2023-01-15T19:06:14.402Z,12.68
2023-01-15T19:08:42.334Z,12.75
2023-01-15T19:11:13.031Z,11.65
2023-01-15T19:13:41.407Z,7.95
2023-01-15T19:16:28.029Z,10.32
2023-01-15T19:18:56.074Z,9.30
2023-01-15T19:21:40.246Z,10.05
2023-01-15T19:24:08.504Z,9.75
2023-01-15T19:26:40.345Z,7.40
2023-01-15T19:29:08.134Z,8.00
2023-01-15T19:31:37.353Z,9.43
2023-01-15T19:34:32.102Z,10.35
2023-01-15T19:36:59.452Z,8.90
2023-01-15T19:39:27.980Z,10.93
2023-01-15T19:42:16.832Z,12.68
2023-01-15T19:45:10.960Z,12.40
2023-01-15T19:48:05.234Z,12.40
2023-01-15T19:51:00.149Z,14.25
2023-01-15T19:53:41.190Z,11.25
2023-01-15T19:56:09.948Z,15.20
2023-01-15T19:58:38.617Z,12.15
2023-01-15T20:01:07.418Z,13.82
2023-01-15T20:03:36.150Z,10.45
2023-01-15T20:06:07.993Z,11.63
2023-01-15T20:11:09.966Z,10.23
2023-01-15T20:13:53.566Z,9.20
2023-01-15T20:16:23.229Z,8.82
2023-01-15T20:18:53.604Z,10.38
2023-01-15T20:21:22.272Z,9.18
2023-01-15T20:23:50.388Z,10.27
2023-01-15T20:26:19.273Z,12.48
2023-01-15T20:28:48.109Z,8.18
2023-01-15T20:31:20.055Z,9.60
2023-01-15T20:33:50.979Z,9.65
2023-01-15T20:36:19.086Z,15.25
2023-01-15T20:38:48.076Z,9.57
2023-01-15T20:41:35.164Z,13.23
2023-01-15T20:44:21.784Z,12.77
2023-01-15T20:46:53.830Z,10.05
2023-01-15T20:49:25.843Z,10.10
2023-01-15T20:51:54.867Z,11.73
2023-01-15T20:54:24.799Z,10.52
2023-01-15T20:56:52.962Z,11.77
2023-01-15T20:59:21.821Z,12.02
2023-01-15T21:01:50.343Z,11.13
2023-01-15T21:04:19.692Z,10.52
2023-01-15T21:06:47.944Z,12.23
2023-01-15T21:09:17.262Z,13.93
2023-01-15T21:11:45.642Z,13.05
2023-01-15T21:14:14.476Z,14.45
2023-01-15T21:16:42.240Z,13.43
2023-01-15T21:19:10.532Z,13.63
2023-01-15T21:21:39.285Z,15.15
2023-01-15T21:24:08.459Z,13.90
2023-01-15T21:26:36.943Z,11.82
2023-01-15T21:29:05.981Z,14.25
2023-01-15T21:31:34.305Z,13.40
2023-01-15T21:34:03.338Z,9.93
2023-01-15T21:36:31.496Z,12.27
2023-01-15T21:39:00.540Z,17.33
2023-01-15T21:41:47.290Z,12.48
2023-01-15T21:44:36.626Z,18.40
2023-01-15T21:47:09.284Z,12.52
2023-01-15T21:49:38.625Z,11.68
2023-01-15T21:52:10.163Z,12.38
2023-01-15T21:54:39.100Z,12.05
2023-01-15T21:57:07.669Z,12.70
2023-01-15T21:59:36.275Z,12.07
2023-01-15T22:02:05.163Z,11.98
2023-01-15T22:04:36.728Z,13.88
2023-01-15T22:07:04.616Z,12.75
2023-01-15T22:09:33.293Z,10.50
2023-01-15T22:12:01.492Z,12.18
2023-01-15T22:14:31.738Z,9.52
2023-01-15T22:17:02.817Z,13.98
2023-01-15T22:19:32.594Z,14.32
2023-01-15T22:22:08.617Z,17.70
2023-01-15T22:24:39.668Z,12.88
2023-01-15T22:27:08.554Z,12.13
2023-01-15T22:29:39.209Z,13.80
2023-01-15T22:32:08.731Z,11.43
2023-01-15T22:34:37.008Z,12.27
2023-01-15T22:37:04.826Z,12.57
2023-01-15T22:39:33.361Z,9.57
2023-01-15T22:42:19.706Z,9.90
2023-01-15T22:44:48.745Z,9.90
2023-01-15T22:47:18.179Z,10.45
2023-01-15T22:49:46.637Z,11.68
2023-01-15T22:52:14.836Z,11.88
2023-01-15T22:54:45.087Z,10.13
2023-01-15T22:57:13.655Z,11.25
2023-01-15T22:59:43.171Z,15.27
2023-01-15T23:02:12.895Z,12.45
2023-01-15T23:04:41.255Z,13.20
2023-01-15T23:07:10.269Z,9.63
2023-01-15T23:09:38.991Z,10.55
2023-01-15T23:12:06.917Z,10.10
2023-01-15T23:14:35.335Z,10.07
2023-01-15T23:17:02.938Z,12.10
2023-01-15T23:19:31.264Z,10.05
2023-01-15T23:22:00.648Z,10.50
2023-01-15T23:24:29.087Z,11.45
2023-01-15T23:26:56.818Z,11.27
2023-01-15T23:29:25.022Z,12.90
2023-01-15T23:31:52.891Z,13.07
2023-01-15T23:34:20.916Z,9.90
2023-01-15T23:36:48.651Z,10.18
2023-01-15T23:39:16.714Z,12.95
2023-01-15T23:42:02.729Z,12.10
2023-01-15T23:44:49.892Z,10.13
2023-01-15T23:47:17.866Z,9.63
2023-01-15T23:49:46.321Z,9.25
2023-01-15T23:52:14.393Z,11.13
2023-01-15T23:54:42.578Z,11.77
2023-01-15T23:57:10.828Z,12.13
2023-01-15T23:59:39.217Z,9.68
